Latest Weather Observations for Cape Sorell

IDT60801

Issued at 7:05 pm EDT Monday 20 October 2014 (issued every 30 minutes, with the page automatically refreshed every 10 minutes)

About weather observations | Map of weather stations | Latest weather observations for TAS | Other Formats
Station Details ID: 097000 Name: CAPE SORELL Lat: -42.20 Lon: 145.17 Height: 19.3 m
Data from the previous 72 hours. | See also: Recent months at Cape Sorell
Date/Time
EDT
Temp
°C
App
Temp
°C
Dew
Point
Rel
Hum
%
Delta-T
°C
Wind Press
QNH
hPa
Press
MSL
hPa
Rain
since 9 am
mm
Dir
 
Spd
km/h
Gust
km/h
Spd
kts
Gust
kts
20/07:00pm 11.2 3.7 4.4 63 3.0 S 33 44 18 24 1032.1 1032.1 0.0
20/06:30pm 11.4 3.2 4.6 63 3.0 S 37 44 20 24 1032.2 1032.2 0.0
20/06:00pm 11.9 4.2 5.3 64 3.0 S 35 43 19 23 1032.4 1032.4 0.0
20/05:30pm 12.2 4.4 5.1 62 3.3 S 35 41 19 22 1032.7 1032.7 0.0
20/05:00pm 12.3 4.9 5.0 61 3.3 S 33 39 18 21 1032.8 1032.8 0.0
20/04:30pm 12.5 5.3 5.0 60 3.5 S 32 39 17 21 1032.8 1032.8 0.0
20/04:00pm 12.3 5.0 4.3 58 3.6 SSW 32 37 17 20 1032.8 1032.8 0.0
20/03:30pm 12.4 4.9 4.4 58 3.6 S 33 39 18 21 1032.9 1032.9 0.0
20/03:00pm 13.1 6.7 5.0 58 3.7 SSW 28 33 15 18 1033.3 1033.3 0.0
20/02:30pm 13.2 6.8 5.4 59 3.6 SSW 28 33 15 18 1033.4 1033.4 0.0
20/02:00pm 13.5 7.9 5.2 57 3.8 SSW 24 28 13 15 1033.8 1033.8 0.0
20/01:30pm 13.1 7.9 3.7 53 4.2 SSW 20 24 11 13 1034.0 1034.0 0.0
20/01:00pm 13.1 8.5 3.7 53 4.2 SSW 17 20 9 11 1034.3 1034.3 0.0
20/12:30pm 12.3 8.5 4.0 57 3.7 SSW 13 17 7 9 1034.5 1034.5 0.0
20/12:00pm 12.1 8.8 2.6 52 4.1 ESE 9 15 5 8 1034.6 1034.6 0.0
20/11:30am 12.1 8.1 2.8 53 4.1 SE 13 20 7 11 1034.7 1034.7 0.0
20/11:00am 12.2 7.3 2.1 50 4.3 ESE 17 24 9 13 1034.6 1034.6 0.0
20/10:30am 12.2 7.4 2.4 51 4.3 ESE 17 24 9 13 1034.7 1034.7 0.0
20/10:00am 11.2 7.0 3.7 60 3.3 ESE 15 22 8 12 1034.6 1034.6 0.0
20/09:30am 10.0 5.6 4.6 69 2.4 E 17 22 9 12 1034.4 1034.4 0.0
20/09:00am 10.2 7.1 5.4 72 2.2 E 11 15 6 8 1034.1 1034.1 5.2
20/08:30am 9.3 6.2 5.5 77 1.7 E 11 15 6 8 1033.7 1033.7 5.2
20/08:00am 8.6 5.5 5.5 81 1.4 E 11 17 6 9 1033.3 1033.3 5.2
20/07:30am 7.8 5.4 5.3 84 1.1 E 7 15 4 8 1032.9 1032.9 5.2
20/07:00am 6.5 3.5 4.0 84 1.1 E 9 13 5 7 1032.5 1032.5 5.2
20/06:30am 5.9 2.7 2.9 81 1.2 ESE 9 11 5 6 1032.0 1032.0 5.2
20/06:00am 5.8 1.4 2.8 81 1.2 E 15 17 8 9 1031.6 1031.6 5.2
20/05:30am 6.0 2.0 2.8 80 1.3 E 13 17 7 9 1031.2 1031.2 5.2
20/05:00am 6.4 2.0 2.7 77 1.5 E 15 19 8 10 1030.7 1030.7 5.2
20/04:30am 6.1 2.2 1.1 70 2.0 ESE 11 19 6 10 1030.7 1030.7 5.2
20/04:00am 7.0 2.0 1.1 66 2.3 SSE 17 22 9 12 1030.3 1030.3 5.2
20/03:30am 7.6 2.2 1.0 63 2.6 SSE 19 24 10 13 1030.3 1030.3 5.2
20/03:00am 9.4 2.4 2.0 60 3.1 S 28 37 15 20 1030.3 1030.3 5.2
20/02:30am 8.9 2.8 2.5 64 2.7 S 24 39 13 21 1030.1 1030.1 5.2
20/02:00am 8.3 3.3 1.2 61 2.9 SE 17 19 9 10 1030.0 1030.0 5.2
20/01:30am 7.8 3.4 2.5 69 2.2 SSE 15 22 8 12 1029.7 1029.7 5.2
20/01:17am 8.3 0.6 2.1 65 2.6 SSE 32 50 17 27 1029.7 1029.7 5.2
20/01:00am 9.3 0.4 3.3 66 2.6 S 39 52 21 28 1029.2 1029.2 5.2
20/12:30am 9.7 1.0 2.3 60 3.1 SSW 37 43 20 23 1028.9 1028.9 5.2
20/12:00am 9.9 1.8 3.2 63 2.9 SSW 35 43 19 23 1028.4 1028.4 5.2
 
Date/Time
EDT
Temp
°C
App
Temp
°C
Dew
Point
Rel
Hum
%
Delta-T
°C
Wind Press
QNH
hPa
Press
MSL
hPa
Rain
since 9 am
mm
Dir
 
Spd
km/h
Gust
km/h
Spd
kts
Gust
kts
19/11:30pm 9.9 1.9 3.6 65 2.8 S 35 41 19 22 1028.2 1028.2 5.2
19/11:00pm 9.8 1.6 2.6 61 3.0 S 35 46 19 25 1027.6 1027.6 5.2
19/10:30pm 9.7 0.4 3.0 63 2.9 S 41 50 22 27 1027.4 1027.4 5.2
19/10:00pm 9.6 0.8 3.6 66 2.6 SSW 39 46 21 25 1027.1 1027.1 5.2
19/09:30pm 10.0 0.2 5.2 72 2.2 S 46 57 25 31 1026.5 1026.5 5.2
19/09:00pm 9.7 0.7 4.5 70 2.3 SSW 41 50 22 27 1026.0 1026.0 5.2
19/08:30pm 9.6 -1.3 5.4 75 1.9 SSW 52 61 28 33 1025.2 1025.2 5.2
19/08:13pm 10.0 -0.1 5.6 74 2.0 SSW 48 72 26 39 1024.2 1024.2 5.2
19/08:00pm 9.9 0.1 5.5 74 2.0 SSW 46 56 25 30 1024.2 1024.2 5.2
19/07:30pm 10.0 0.3 7.3 83 1.3 SSW 48 57 26 31 1023.4 1023.4 5.2
19/07:00pm 9.6 1.3 7.7 88 0.9 SSW 41 46 22 25 1022.8 1022.8 5.2
19/06:30pm 9.3 1.5 8.2 93 0.5 SSW 39 48 21 26 1022.4 1022.4 5.2
19/06:00pm 9.4 0.9 8.6 95 0.4 SW 43 54 23 29 1021.7 1021.7 5.2
19/05:30pm 9.0 2.4 8.6 97 0.2 SW 33 44 18 24 1021.3 1021.3 4.8
19/05:00pm 9.3 4.5 8.8 97 0.2 SW 24 30 13 16 1020.5 1020.5 4.4
19/04:30pm 9.3 4.5 9.0 98 0.1 SW 24 30 13 16 1021.0 1021.0 4.0
19/04:00pm 9.5 3.3 9.2 98 0.1 SW 32 37 17 20 1021.0 1021.0 3.6
19/03:30pm 9.7 2.9 9.4 98 0.1 SW 35 41 19 22 1020.7 1020.7 2.8
19/03:00pm 9.8 3.0 9.3 97 0.2 SW 35 39 19 21 1019.7 1019.7 2.2
19/02:30pm 9.7 3.4 9.1 96 0.3 SW 32 37 17 20 1019.7 1019.7 1.8
19/02:00pm 9.7 2.1 8.9 95 0.4 SSW 39 44 21 24 1019.7 1019.7 1.0
19/01:30pm 11.1 4.4 9.7 91 0.7 SSW 35 39 19 21 1019.5 1019.5 0.2
19/01:00pm 12.4 6.5 10.3 87 1.1 SW 32 35 17 19 1018.9 1018.9 0.0
19/12:30pm 12.9 8.5 10.4 85 1.3 WSW 24 30 13 16 1019.3 1019.3 0.0
19/12:00pm 12.6 8.2 10.5 87 1.1 WSW 24 28 13 15 1018.8 1018.8 0.0
19/11:30am 12.9 9.7 11.3 90 0.8 WSW 19 26 10 14 1018.9 1018.9 0.0
19/11:00am 12.8 9.3 11.0 89 0.9 WSW 20 28 11 15 1018.9 1018.9 0.0
19/10:30am 13.4 10.3 11.6 89 1.0 W 19 24 10 13 1018.8 1018.8 0.0
19/10:00am 12.9 10.5 11.5 91 0.7 WNW 15 19 8 10 1018.5 1018.5 0.0
19/09:30am 12.7 9.9 11.4 92 0.7 W 17 28 9 15 1018.7 1018.7 0.0
19/09:00am 12.6 7.7 11.3 92 0.7 W 28 39 15 21 1018.5 1018.5 0.0
19/08:30am 12.9 9.3 11.8 93 0.6 W 22 28 12 15 1018.1 1018.1 0.0
19/08:00am 12.8 10.2 11.9 94 0.5 W 17 22 9 12 1017.6 1017.6 0.0
19/07:30am 12.7 10.8 11.9 95 0.4 W 13 17 7 9 1017.0 1017.0 0.0
19/07:00am 12.5 8.1 11.7 95 0.4 WSW 26 30 14 16 1017.3 1017.3 0.0
19/06:30am 12.5 9.5 11.9 96 0.3 W 19 28 10 15 1017.0 1017.0 0.0
19/06:00am 12.6 10.0 12.1 97 0.3 W 17 22 9 12 1016.4 1016.4 0.0
19/05:30am 12.5 8.9 11.7 95 0.4 W 22 32 12 17 1016.2 1016.2 0.0
19/05:00am 13.4 11.0 12.5 94 0.5 NW 17 24 9 13 1015.6 1015.7 0.0
19/04:30am 13.6 10.7 12.2 91 0.8 NW 19 26 10 14 1015.8 1015.8 0.0
19/04:00am 13.9 9.0 11.4 85 1.3 WNW 28 35 15 19 1015.8 1015.8 0.0
19/03:30am 14.6 9.9 10.8 78 2.0 NW 26 39 14 21 1015.6 1015.7 0.0
19/03:00am 14.9 8.9 10.1 73 2.5 NNW 32 39 17 21 1015.5 1015.6 0.0
19/02:30am 15.7 8.3 9.8 68 3.1 N 39 52 21 28 1014.8 1014.9 0.0
19/02:00am 16.6 7.8 9.5 63 3.7 N 46 54 25 29 1014.7 1014.8 0.0
19/01:30am 16.9 6.5 9.1 60 4.0 N 54 69 29 37 1014.2 1014.3 0.0
19/01:00am 16.9 6.5 9.1 60 4.0 N 54 65 29 35 1014.0 1014.1 0.0
19/12:30am 17.5 6.9 8.6 56 4.6 N 54 67 29 36 1014.6 1014.7 0.0
19/12:13am 17.7 8.7 8.8 56 4.6 N 46 69 25 37 1014.3 1014.4 0.0
19/12:00am 16.1 7.6 8.6 61 3.8 N 43 50 23 27 1014.4 1014.5 0.0
 
Date/Time
EDT
Temp
°C
App
Temp
°C
Dew
Point
Rel
Hum
%
Delta-T
°C
Wind Press
QNH
hPa
Press
MSL
hPa
Rain
since 9 am
mm
Dir
 
Spd
km/h
Gust
km/h
Spd
kts
Gust
kts
18/11:30pm 16.5 6.3 8.5 59 4.1 N 52 63 28 34 1013.9 1014.0 0.0
18/11:00pm 16.3 5.6 8.0 58 4.2 N 54 63 29 34 1013.5 1013.6 0.0
18/10:30pm 16.3 5.6 8.0 58 4.2 N 54 63 29 34 1013.9 1014.0 0.0
18/10:00pm 15.8 6.2 8.1 60 3.9 NNE 48 57 26 31 1013.9 1014.0 0.0
18/09:30pm 15.7 6.9 8.2 61 3.8 N 44 50 24 27 1014.8 1014.9 0.0
18/09:00pm 15.4 7.7 8.6 64 3.5 NNE 39 46 21 25 1014.6 1014.7 0.0
18/08:30pm 15.4 6.3 8.6 64 3.5 NNE 46 57 25 31 1014.6 1014.7 0.0
18/08:00pm 15.3 6.7 9.0 66 3.2 NNE 44 56 24 30 1015.2 1015.3 0.0
18/07:30pm 15.5 5.4 9.0 65 3.3 NNE 52 59 28 32 1015.0 1015.1 0.0
18/07:00pm 15.4 7.2 9.7 69 3.0 NNE 43 50 23 27 1015.8 1015.8 0.0
18/06:30pm 15.1 7.0 10.1 72 2.6 N 43 52 23 28 1016.8 1016.8 0.0
18/06:00pm 15.5 8.8 9.8 69 3.0 N 35 46 19 25 1017.9 1017.9 0.0
18/05:30pm 15.6 9.9 9.7 68 3.1 N 30 37 16 20 1018.4 1018.4 0.0
18/05:00pm 15.4 9.3 9.7 69 3.0 NNE 32 37 17 20 1018.0 1018.0 0.0
18/04:30pm 15.3 8.6 9.7 69 2.9 NNE 35 43 19 23 1018.5 1018.5 0.0
18/04:00pm 15.3 8.2 9.7 69 2.9 N 37 41 20 22 1018.9 1018.9 0.0
18/03:30pm 15.8 7.9 9.5 66 3.3 N 41 48 22 26 1018.9 1018.9 0.0
18/03:00pm 16.5 7.7 8.0 57 4.3 N 44 54 24 29 1019.1 1019.1 0.0
18/02:30pm 16.6 8.3 7.8 56 4.4 N 41 52 22 28 1019.5 1019.5 0.0
18/02:00pm 15.7 8.2 9.4 66 3.2 N 39 46 21 25 1020.2 1020.2 0.0
18/01:30pm 15.5 8.4 9.4 67 3.2 N 37 46 20 25 1020.8 1020.8 0.0
18/01:00pm 16.1 9.8 9.8 66 3.3 N 33 44 18 24 1021.0 1021.0 0.0
18/12:30pm 15.6 7.9 8.6 63 3.6 N 39 44 21 24 1020.9 1020.9 0.0
18/12:00pm 15.0 6.9 8.7 66 3.2 N 41 48 22 26 1020.4 1020.4 0.0
18/11:30am 14.9 7.6 8.8 67 3.1 N 37 48 20 26 1021.0 1021.0 0.0
18/11:00am 15.0 6.3 8.3 64 3.4 NNE 44 50 24 27 1020.0 1020.0 0.0
18/10:30am 14.6 6.0 8.3 66 3.2 NNE 43 52 23 28 1020.6 1020.6 0.0
18/10:00am 14.4 6.2 8.1 66 3.1 NNE 41 52 22 28 1021.2 1021.2 0.0
18/09:30am 14.3 5.8 8.5 68 2.9 N 43 52 23 28 1021.9 1021.9 0.0
18/09:00am 13.5 6.0 8.1 70 2.7 N 37 44 20 24 1022.8 1022.8 0.2
18/08:30am 13.1 4.9 8.0 71 2.5 N 41 48 22 26 1022.8 1022.8 0.2
18/08:00am 12.7 4.8 8.0 73 2.3 N 39 46 21 25 1022.9 1022.9 0.2
18/07:30am 12.6 5.1 8.1 74 2.2 N 37 43 20 23 1023.3 1023.3 0.2
18/07:00am 12.3 5.2 8.0 75 2.1 N 35 43 19 23 1023.1 1023.1 0.2
18/06:30am 12.0 5.4 7.7 75 2.1 N 32 37 17 20 1023.2 1023.2 0.2
18/06:00am 11.9 5.7 7.8 76 2.0 NNE 30 37 16 20 1023.1 1023.1 0.2
18/05:30am 11.7 5.5 7.8 77 1.9 N 30 35 16 19 1023.4 1023.4 0.2
18/05:00am 11.2 6.6 8.2 82 1.5 NNE 22 32 12 17 1023.3 1023.3 0.2
18/04:30am 10.1 6.2 7.3 83 1.3 NNE 17 20 9 11 1023.6 1023.6 0.2
18/04:00am 9.7 4.5 7.1 84 1.2 NE 24 28 13 15 1023.3 1023.3 0.2
18/03:30am 9.8 4.9 6.9 82 1.4 NE 22 26 12 14 1024.2 1024.2 0.2
18/03:00am 10.1 5.6 7.0 81 1.5 NNE 20 26 11 14 1024.8 1024.8 0.2
18/02:30am 10.1 4.8 7.0 81 1.5 NNE 24 28 13 15 1025.1 1025.1 0.2
18/02:00am 10.2 5.3 6.7 79 1.6 NNE 22 30 12 16 1025.8 1025.8 0.2
18/01:30am 10.0 6.7 6.2 77 1.8 NNE 13 19 7 10 1026.0 1026.0 0.2
18/01:00am 9.9 7.3 5.9 76 1.8 NNE 9 13 5 7 1026.1 1026.1 0.2
18/12:30am 9.8 6.7 5.6 75 1.9 NE 11 15 6 8 1025.8 1025.8 0.2
18/12:00am 9.2 6.3 4.8 74 1.9 NE 9 11 5 6 1026.1 1026.1 0.2
 
Date/Time
EDT
Temp
°C
App
Temp
°C
Dew
Point
Rel
Hum
%
Delta-T
°C
Wind Press
QNH
hPa
Press
MSL
hPa
Rain
since 9 am
mm
Dir
 
Spd
km/h
Gust
km/h
Spd
kts
Gust
kts
17/11:30pm 9.2 6.7 3.8 69 2.4 NNE 6 9 3 5 1026.4 1026.4 0.2
17/11:00pm 9.4 7.2 3.6 67 2.5 NE 4 7 2 4 1026.4 1026.4 0.2
17/10:30pm 9.6 7.4 3.4 65 2.7 E 4 6 2 3 1026.8 1026.8 0.2
17/10:00pm 9.7 7.6 4.1 68 2.5 E 4 4 2 2 1027.1 1027.1 0.2
17/09:30pm 9.3 6.9 4.1 70 2.3 ESE 6 7 3 4 1027.1 1027.1 0.2
17/09:00pm 9.3 6.7 4.3 71 2.2 ESE 7 9 4 5 1027.2 1027.2 0.2
17/08:30pm 9.8 7.5 4.6 70 2.3 SE 6 7 3 4 1027.2 1027.2 0.2
17/08:00pm 10.9 8.2 5.4 69 2.5 S 9 13 5 7 1027.0 1027.0 0.2
17/07:30pm 10.9 7.8 5.4 69 2.5 S 11 15 6 8 1026.7 1026.7 0.2

Other Formats:

Comma delimited format used in spreadsheet applications
http://www.bom.gov.au/fwo/IDT60801/IDT60801.94974.axf

JavaScript Object Notation format (JSON) in row-major order
http://www.bom.gov.au/fwo/IDT60801/IDT60801.94974.json